sensor_id;sensor_type;location;lat;lon;timestamp;pressure;altitude;pressure_sealevel;temperature;humidity
72118;BME280;59992;47.490;8.736;2023-04-04T00:00:55;97031.59;;;0.05;65.65
72118;BME280;59992;47.490;8.736;2023-04-04T00:03:45;97030.99;;;0.12;65.47
72118;BME280;59992;47.490;8.736;2023-04-04T00:06:39;97029.29;;;0.18;65.14
72118;BME280;59992;47.490;8.736;2023-04-04T00:09:33;97025.98;;;0.23;64.85
72118;BME280;59992;47.490;8.736;2023-04-04T00:12:24;97025.20;;;0.30;64.47
72118;BME280;59992;47.490;8.736;2023-04-04T00:15:14;97022.52;;;0.35;64.54
72118;BME280;59992;47.490;8.736;2023-04-04T00:18:05;97023.45;;;0.36;64.21
72118;BME280;59992;47.490;8.736;2023-04-04T00:20:55;97022.45;;;0.37;64.10
72118;BME280;59992;47.490;8.736;2023-04-04T00:23:45;97020.85;;;0.36;64.27
72118;BME280;59992;47.490;8.736;2023-04-04T00:26:36;97018.52;;;0.33;64.09
72118;BME280;59992;47.490;8.736;2023-04-04T00:29:26;97016.60;;;0.34;64.30
72118;BME280;59992;47.490;8.736;2023-04-04T00:32:17;97018.40;;;0.32;64.38
72118;BME280;59992;47.490;8.736;2023-04-04T00:35:08;97019.85;;;0.32;64.08
72118;BME280;59992;47.490;8.736;2023-04-04T00:37:58;97023.27;;;0.34;64.15
72118;BME280;59992;47.490;8.736;2023-04-04T00:40:49;97022.23;;;0.34;64.16
72118;BME280;59992;47.490;8.736;2023-04-04T00:43:40;97018.58;;;0.34;64.08
72118;BME280;59992;47.490;8.736;2023-04-04T00:46:30;97021.13;;;0.34;63.90
72118;BME280;59992;47.490;8.736;2023-04-04T00:49:22;97017.09;;;0.35;63.66
72118;BME280;59992;47.490;8.736;2023-04-04T00:52:12;97019.41;;;0.34;64.24
72118;BME280;59992;47.490;8.736;2023-04-04T00:55:02;97014.61;;;0.31;63.87
72118;BME280;59992;47.490;8.736;2023-04-04T00:57:53;97015.70;;;0.27;64.44
72118;BME280;59992;47.490;8.736;2023-04-04T01:00:44;97012.36;;;0.24;64.88
72118;BME280;59992;47.490;8.736;2023-04-04T01:03:34;97013.23;;;0.24;64.77
72118;BME280;59992;47.490;8.736;2023-04-04T01:06:25;97012.46;;;0.24;64.78
72118;BME280;59992;47.490;8.736;2023-04-04T01:09:18;97012.90;;;0.23;64.54
72118;BME280;59992;47.490;8.736;2023-04-04T01:12:09;97012.27;;;0.23;64.73
72118;BME280;59992;47.490;8.736;2023-04-04T01:14:59;97011.23;;;0.23;64.70
72118;BME280;59992;47.490;8.736;2023-04-04T01:17:50;97011.21;;;0.21;64.84
72118;BME280;59992;47.490;8.736;2023-04-04T01:20:43;97013.70;;;0.19;64.68
72118;BME280;59992;47.490;8.736;2023-04-04T01:23:46;97010.95;;;0.17;64.97
72118;BME280;59992;47.490;8.736;2023-04-04T01:26:38;97008.04;;;0.16;65.07
72118;BME280;59992;47.490;8.736;2023-04-04T01:29:29;96995.45;;;0.07;65.39
72118;BME280;59992;47.490;8.736;2023-04-04T01:32:22;97003.23;;;0.13;65.05
72118;BME280;59992;47.490;8.736;2023-04-04T01:35:20;96996.42;;;0.09;65.66
72118;BME280;59992;47.490;8.736;2023-04-04T01:38:17;96995.80;;;0.08;65.58
72118;BME280;59992;47.490;8.736;2023-04-04T01:41:10;96998.59;;;0.06;65.56
72118;BME280;59992;47.490;8.736;2023-04-04T01:44:03;96996.83;;;0.06;65.78
72118;BME280;59992;47.490;8.736;2023-04-04T01:46:54;96997.46;;;0.05;65.25
72118;BME280;59992;47.490;8.736;2023-04-04T01:49:45;96995.80;;;0.01;65.64
72118;BME280;59992;47.490;8.736;2023-04-04T01:52:34;97001.55;;;-0.01;65.97
72118;BME280;59992;47.490;8.736;2023-04-04T01:55:25;97001.30;;;0.00;65.54
72118;BME280;59992;47.490;8.736;2023-04-04T01:58:15;97001.97;;;-0.01;65.80
72118;BME280;59992;47.490;8.736;2023-04-04T02:01:06;97000.55;;;-0.04;66.12
72118;BME280;59992;47.490;8.736;2023-04-04T02:03:58;97000.23;;;-0.07;65.83
72118;BME280;59992;47.490;8.736;2023-04-04T02:06:48;96996.12;;;-0.08;65.41
72118;BME280;59992;47.490;8.736;2023-04-04T02:09:43;96998.48;;;-0.09;65.32
72118;BME280;59992;47.490;8.736;2023-04-04T02:12:32;96996.27;;;-0.11;65.68
72118;BME280;59992;47.490;8.736;2023-04-04T02:15:23;96995.98;;;-0.13;65.76
72118;BME280;59992;47.490;8.736;2023-04-04T02:18:13;96999.42;;;-0.16;65.97
72118;BME280;59992;47.490;8.736;2023-04-04T02:21:04;96999.32;;;-0.17;65.70
72118;BME280;59992;47.490;8.736;2023-04-04T02:23:55;96995.96;;;-0.19;65.60
72118;BME280;59992;47.490;8.736;2023-04-04T02:26:45;96994.94;;;-0.21;65.65
72118;BME280;59992;47.490;8.736;2023-04-04T02:29:36;96992.88;;;-0.23;65.63
72118;BME280;59992;47.490;8.736;2023-04-04T02:32:26;96994.41;;;-0.28;65.81
72118;BME280;59992;47.490;8.736;2023-04-04T02:35:16;96995.03;;;-0.32;66.03
72118;BME280;59992;47.490;8.736;2023-04-04T02:38:06;96993.54;;;-0.33;65.80
72118;BME280;59992;47.490;8.736;2023-04-04T02:40:57;96992.70;;;-0.37;66.10
72118;BME280;59992;47.490;8.736;2023-04-04T02:43:47;96987.49;;;-0.38;66.13
72118;BME280;59992;47.490;8.736;2023-04-04T02:46:37;96989.73;;;-0.41;66.09
72118;BME280;59992;47.490;8.736;2023-04-04T02:49:28;96987.59;;;-0.44;66.39
72118;BME280;59992;47.490;8.736;2023-04-04T02:52:19;96987.38;;;-0.45;66.24
72118;BME280;59992;47.490;8.736;2023-04-04T02:55:09;96986.80;;;-0.45;66.10
72118;BME280;59992;47.490;8.736;2023-04-04T02:57:59;96989.48;;;-0.47;65.93
72118;BME280;59992;47.490;8.736;2023-04-04T03:00:55;96989.31;;;-0.50;65.86
72118;BME280;59992;47.490;8.736;2023-04-04T03:03:46;96985.23;;;-0.52;65.64
72118;BME280;59992;47.490;8.736;2023-04-04T03:06:36;96980.84;;;-0.55;65.74
72118;BME280;59992;47.490;8.736;2023-04-04T03:09:28;96981.23;;;-0.58;66.17
72118;BME280;59992;47.490;8.736;2023-04-04T03:12:21;96982.90;;;-0.62;66.52
72118;BME280;59992;47.490;8.736;2023-04-04T03:15:12;96982.91;;;-0.64;66.17
72118;BME280;59992;47.490;8.736;2023-04-04T03:18:02;96986.80;;;-0.66;66.17
72118;BME280;59992;47.490;8.736;2023-04-04T03:20:53;96980.59;;;-0.69;66.15
72118;BME280;59992;47.490;8.736;2023-04-04T03:23:43;96981.48;;;-0.70;66.28
72118;BME280;59992;47.490;8.736;2023-04-04T03:26:33;96983.71;;;-0.74;67.24
72118;BME280;59992;47.490;8.736;2023-04-04T03:29:23;96975.27;;;-0.81;69.37
72118;BME280;59992;47.490;8.736;2023-04-04T03:32:16;96982.63;;;-0.84;69.32
72118;BME280;59992;47.490;8.736;2023-04-04T03:35:08;96978.75;;;-0.91;70.35
72118;BME280;59992;47.490;8.736;2023-04-04T03:38:01;96975.19;;;-0.99;69.64
72118;BME280;59992;47.490;8.736;2023-04-04T03:41:04;96973.38;;;-1.05;68.47
72118;BME280;59992;47.490;8.736;2023-04-04T03:43:54;96976.80;;;-1.09;69.21
72118;BME280;59992;47.490;8.736;2023-04-04T03:46:45;96963.56;;;-1.17;69.40
72118;BME280;59992;47.490;8.736;2023-04-04T03:49:35;96972.36;;;-1.14;68.68
72118;BME280;59992;47.490;8.736;2023-04-04T03:52:26;96971.20;;;-1.16;67.86
72118;BME280;59992;47.490;8.736;2023-04-04T03:55:16;96974.56;;;-1.20;68.03
72118;BME280;59992;47.490;8.736;2023-04-04T03:58:07;96977.56;;;-1.23;68.57
72118;BME280;59992;47.490;8.736;2023-04-04T04:00:57;96979.91;;;-1.25;68.41
72118;BME280;59992;47.490;8.736;2023-04-04T04:03:47;96980.60;;;-1.26;68.75
72118;BME280;59992;47.490;8.736;2023-04-04T04:06:37;96986.00;;;-1.25;68.79
72118;BME280;59992;47.490;8.736;2023-04-04T04:09:27;96987.73;;;-1.22;69.10
72118;BME280;59992;47.490;8.736;2023-04-04T04:12:17;96985.88;;;-1.17;68.52
72118;BME280;59992;47.490;8.736;2023-04-04T04:15:08;96985.55;;;-1.15;68.57
72118;BME280;59992;47.490;8.736;2023-04-04T04:17:59;96986.77;;;-1.12;68.31
72118;BME280;59992;47.490;8.736;2023-04-04T04:20:49;96989.50;;;-1.10;68.01
72118;BME280;59992;47.490;8.736;2023-04-04T04:23:41;96992.40;;;-1.09;68.00
72118;BME280;59992;47.490;8.736;2023-04-04T04:26:31;96991.61;;;-1.08;67.99
72118;BME280;59992;47.490;8.736;2023-04-04T04:29:21;96992.64;;;-1.07;67.81
72118;BME280;59992;47.490;8.736;2023-04-04T04:32:16;96987.65;;;-1.08;67.85
72118;BME280;59992;47.490;8.736;2023-04-04T04:35:08;96987.08;;;-1.08;67.94
72118;BME280;59992;47.490;8.736;2023-04-04T04:37:58;96993.77;;;-1.11;68.04
72118;BME280;59992;47.490;8.736;2023-04-04T04:40:48;96992.11;;;-1.12;67.97
72118;BME280;59992;47.490;8.736;2023-04-04T04:43:38;96996.09;;;-1.13;67.95
72118;BME280;59992;47.490;8.736;2023-04-04T04:46:29;96995.30;;;-1.17;68.07
72118;BME280;59992;47.490;8.736;2023-04-04T04:49:20;97001.60;;;-1.14;67.53
72118;BME280;59992;47.490;8.736;2023-04-04T04:52:10;97006.80;;;-1.14;67.81
72118;BME280;59992;47.490;8.736;2023-04-04T04:55:00;97008.87;;;-1.18;68.26
72118;BME280;59992;47.490;8.736;2023-04-04T04:57:50;97008.05;;;-1.14;68.69
72118;BME280;59992;47.490;8.736;2023-04-04T05:00:41;97011.64;;;-1.14;68.25
72118;BME280;59992;47.490;8.736;2023-04-04T05:03:31;97010.38;;;-1.18;68.18
72118;BME280;59992;47.490;8.736;2023-04-04T05:06:21;97006.90;;;-1.19;68.68
72118;BME280;59992;47.490;8.736;2023-04-04T05:09:11;97008.84;;;-1.20;68.58
72118;BME280;59992;47.490;8.736;2023-04-04T05:12:03;97008.83;;;-1.18;68.38
72118;BME280;59992;47.490;8.736;2023-04-04T05:14:56;97012.66;;;-1.18;68.38
72118;BME280;59992;47.490;8.736;2023-04-04T05:17:46;97008.08;;;-1.23;68.90
72118;BME280;59992;47.490;8.736;2023-04-04T05:20:37;97019.07;;;-1.17;68.64
72118;BME280;59992;47.490;8.736;2023-04-04T05:23:28;97015.27;;;-1.18;68.78
72118;BME280;59992;47.490;8.736;2023-04-04T05:26:17;97018.02;;;-1.16;68.84
72118;BME280;59992;47.490;8.736;2023-04-04T05:29:07;97017.73;;;-1.14;68.63
72118;BME280;59992;47.490;8.736;2023-04-04T05:31:57;97025.55;;;-1.11;68.99
72118;BME280;59992;47.490;8.736;2023-04-04T05:34:48;97028.61;;;-1.10;69.17
72118;BME280;59992;47.490;8.736;2023-04-04T05:37:40;97031.14;;;-1.08;68.71
72118;BME280;59992;47.490;8.736;2023-04-04T05:40:31;97035.27;;;-1.04;69.21
72118;BME280;59992;47.490;8.736;2023-04-04T05:43:21;97032.07;;;-1.00;68.95
72118;BME280;59992;47.490;8.736;2023-04-04T05:46:12;97036.01;;;-0.99;68.87
72118;BME280;59992;47.490;8.736;2023-04-04T05:49:02;97036.45;;;-0.96;68.90
72118;BME280;59992;47.490;8.736;2023-04-04T05:51:52;97034.15;;;-0.91;68.39
72118;BME280;59992;47.490;8.736;2023-04-04T05:54:44;97034.48;;;-0.85;68.28
72118;BME280;59992;47.490;8.736;2023-04-04T05:57:35;97032.98;;;-0.77;67.99
72118;BME280;59992;47.490;8.736;2023-04-04T06:00:25;97032.27;;;-0.72;68.17
72118;BME280;59992;47.490;8.736;2023-04-04T06:03:15;97032.32;;;-0.65;68.04
72118;BME280;59992;47.490;8.736;2023-04-04T06:06:05;97035.80;;;-0.58;68.15
72118;BME280;59992;47.490;8.736;2023-04-04T06:08:56;97036.36;;;-0.47;68.02
72118;BME280;59992;47.490;8.736;2023-04-04T06:11:46;97035.90;;;-0.39;67.88
72118;BME280;59992;47.490;8.736;2023-04-04T06:14:36;97035.65;;;-0.32;67.64
72118;BME280;59992;47.490;8.736;2023-04-04T06:17:26;97036.23;;;-0.14;67.48
72118;BME280;59992;47.490;8.736;2023-04-04T06:20:17;97037.91;;;0.08;67.10
72118;BME280;59992;47.490;8.736;2023-04-04T06:23:09;97039.61;;;0.36;66.65
72118;BME280;59992;47.490;8.736;2023-04-04T06:25:59;97041.89;;;0.74;65.95
72118;BME280;59992;47.490;8.736;2023-04-04T06:28:49;97035.83;;;1.36;64.04
72118;BME280;59992;47.490;8.736;2023-04-04T06:31:40;97045.60;;;1.97;61.94
72118;BME280;59992;47.490;8.736;2023-04-04T06:34:30;97046.45;;;2.38;60.92
72118;BME280;59992;47.490;8.736;2023-04-04T06:37:21;97045.86;;;2.84;61.42
72118;BME280;59992;47.490;8.736;2023-04-04T06:40:11;97042.20;;;3.62;58.10
72118;BME280;59992;47.490;8.736;2023-04-04T06:43:02;97046.55;;;3.64;59.06
72118;BME280;59992;47.490;8.736;2023-04-04T06:45:52;97051.17;;;3.49;57.91
72118;BME280;59992;47.490;8.736;2023-04-04T06:48:42;97049.16;;;3.46;60.26
72118;BME280;59992;47.490;8.736;2023-04-04T06:51:33;97054.02;;;3.37;57.06
72118;BME280;59992;47.490;8.736;2023-04-04T06:54:23;97048.98;;;3.19;56.48
72118;BME280;59992;47.490;8.736;2023-04-04T06:57:13;97049.20;;;2.91;56.88
72118;BME280;59992;47.490;8.736;2023-04-04T07:00:05;97054.93;;;2.72;57.32
72118;BME280;59992;47.490;8.736;2023-04-04T07:02:59;97051.77;;;2.53;57.24
72118;BME280;59992;47.490;8.736;2023-04-04T07:05:50;97051.04;;;2.39;57.74
72118;BME280;59992;47.490;8.736;2023-04-04T07:08:40;97049.13;;;2.31;57.69
72118;BME280;59992;47.490;8.736;2023-04-04T07:11:31;97048.68;;;2.37;58.07
72118;BME280;59992;47.490;8.736;2023-04-04T07:14:21;97046.93;;;2.38;57.88
72118;BME280;59992;47.490;8.736;2023-04-04T07:17:12;97046.75;;;2.50;58.41
72118;BME280;59992;47.490;8.736;2023-04-04T07:20:03;97049.13;;;2.57;57.40
72118;BME280;59992;47.490;8.736;2023-04-04T07:22:53;97048.83;;;2.60;57.04
72118;BME280;59992;47.490;8.736;2023-04-04T07:25:44;97048.72;;;2.60;57.18
72118;BME280;59992;47.490;8.736;2023-04-04T07:28:34;97052.74;;;2.69;56.43
72118;BME280;59992;47.490;8.736;2023-04-04T07:31:25;97050.94;;;3.03;55.41
72118;BME280;59992;47.490;8.736;2023-04-04T07:34:15;97052.44;;;3.53;54.29
72118;BME280;59992;47.490;8.736;2023-04-04T07:37:05;97048.80;;;4.03;53.76
72118;BME280;59992;47.490;8.736;2023-04-04T07:39:56;97051.13;;;4.73;51.62
72118;BME280;59992;47.490;8.736;2023-04-04T07:42:46;97045.88;;;4.98;49.80
72118;BME280;59992;47.490;8.736;2023-04-04T07:45:38;97041.16;;;5.46;49.45
72118;BME280;59992;47.490;8.736;2023-04-04T07:48:28;97038.06;;;5.92;50.73
72118;BME280;59992;47.490;8.736;2023-04-04T07:51:18;97039.08;;;6.47;49.12
72118;BME280;59992;47.490;8.736;2023-04-04T07:54:16;97038.06;;;6.93;47.91
72118;BME280;59992;47.490;8.736;2023-04-04T07:57:06;97040.88;;;7.22;45.87
72118;BME280;59992;47.490;8.736;2023-04-04T07:59:58;97047.77;;;6.88;44.86
72118;BME280;59992;47.490;8.736;2023-04-04T08:02:54;97034.65;;;6.52;44.12
72118;BME280;59992;47.490;8.736;2023-04-04T08:05:46;97038.45;;;6.43;45.24
72118;BME280;59992;47.490;8.736;2023-04-04T08:08:36;97024.21;;;6.28;46.12
72118;BME280;59992;47.490;8.736;2023-04-04T08:11:27;97027.75;;;6.50;45.96
72118;BME280;59992;47.490;8.736;2023-04-04T08:14:17;97017.41;;;6.70;45.38
72118;BME280;59992;47.490;8.736;2023-04-04T08:17:07;97026.10;;;7.06;45.70
72118;BME280;59992;47.490;8.736;2023-04-04T08:19:57;97026.13;;;7.41;44.98
72118;BME280;59992;47.490;8.736;2023-04-04T08:22:47;97028.23;;;7.38;42.51
72118;BME280;59992;47.490;8.736;2023-04-04T08:25:37;97031.90;;;7.26;43.85
72118;BME280;59992;47.490;8.736;2023-04-04T08:28:28;97029.73;;;7.49;44.00
72118;BME280;59992;47.490;8.736;2023-04-04T08:31:18;97026.92;;;7.59;41.31
72118;BME280;59992;47.490;8.736;2023-04-04T08:34:08;97030.29;;;7.51;42.12
72118;BME280;59992;47.490;8.736;2023-04-04T08:36:58;97036.13;;;7.66;42.16
72118;BME280;59992;47.490;8.736;2023-04-04T08:39:49;97034.16;;;7.63;42.59
72118;BME280;59992;47.490;8.736;2023-04-04T08:42:41;97025.61;;;7.50;41.83
72118;BME280;59992;47.490;8.736;2023-04-04T08:45:32;97031.98;;;7.64;42.28
72118;BME280;59992;47.490;8.736;2023-04-04T08:48:25;97038.77;;;7.78;41.99
72118;BME280;59992;47.490;8.736;2023-04-04T08:51:19;97040.64;;;7.54;41.57
72118;BME280;59992;47.490;8.736;2023-04-04T08:54:11;97037.39;;;7.44;40.63
72118;BME280;59992;47.490;8.736;2023-04-04T08:57:01;97042.56;;;7.30;40.18
72118;BME280;59992;47.490;8.736;2023-04-04T08:59:52;97038.20;;;7.44;40.57
72118;BME280;59992;47.490;8.736;2023-04-04T09:02:52;97036.41;;;7.42;41.31
72118;BME280;59992;47.490;8.736;2023-04-04T09:05:45;97038.16;;;7.70;41.85
72118;BME280;59992;47.490;8.736;2023-04-04T09:08:36;97034.64;;;7.73;41.01
72118;BME280;59992;47.490;8.736;2023-04-04T09:11:28;97039.21;;;7.70;40.46
72118;BME280;59992;47.490;8.736;2023-04-04T09:14:21;97043.98;;;7.64;40.51
72118;BME280;59992;47.490;8.736;2023-04-04T09:17:11;97039.64;;;7.56;39.45
72118;BME280;59992;47.490;8.736;2023-04-04T09:20:11;97035.65;;;7.54;40.07
72118;BME280;59992;47.490;8.736;2023-04-04T09:23:15;97037.81;;;7.14;41.06
72118;BME280;59992;47.490;8.736;2023-04-04T09:26:06;97038.56;;;6.75;41.92
72118;BME280;59992;47.490;8.736;2023-04-04T09:28:56;97040.73;;;6.57;42.11
72118;BME280;59992;47.490;8.736;2023-04-04T09:31:47;97036.39;;;6.39;42.50
72118;BME280;59992;47.490;8.736;2023-04-04T09:34:38;97040.37;;;6.25;42.07
72118;BME280;59992;47.490;8.736;2023-04-04T09:37:29;97035.10;;;5.99;42.18
72118;BME280;59992;47.490;8.736;2023-04-04T09:40:19;97030.86;;;5.88;42.99
72118;BME280;59992;47.490;8.736;2023-04-04T09:43:12;97034.63;;;5.93;42.84
72118;BME280;59992;47.490;8.736;2023-04-04T09:46:03;97034.91;;;5.83;42.48
72118;BME280;59992;47.490;8.736;2023-04-04T09:48:54;97032.82;;;5.72;43.06
72118;BME280;59992;47.490;8.736;2023-04-04T09:51:50;97032.15;;;5.66;43.36
72118;BME280;59992;47.490;8.736;2023-04-04T09:54:41;97029.67;;;5.59;42.82
72118;BME280;59992;47.490;8.736;2023-04-04T09:57:33;97025.64;;;5.54;43.58
72118;BME280;59992;47.490;8.736;2023-04-04T10:00:28;97027.85;;;5.64;43.60
72118;BME280;59992;47.490;8.736;2023-04-04T10:03:22;97028.98;;;5.66;42.90
72118;BME280;59992;47.490;8.736;2023-04-04T10:06:12;97030.19;;;5.53;43.09
72118;BME280;59992;47.490;8.736;2023-04-04T10:09:03;97031.93;;;5.47;44.01
72118;BME280;59992;47.490;8.736;2023-04-04T10:12:09;97036.29;;;5.51;43.50
72118;BME280;59992;47.490;8.736;2023-04-04T10:15:00;97029.08;;;5.59;43.19
72118;BME280;59992;47.490;8.736;2023-04-04T10:17:53;97026.54;;;5.67;42.87
72118;BME280;59992;47.490;8.736;2023-04-04T10:20:44;97030.65;;;5.61;43.04
72118;BME280;59992;47.490;8.736;2023-04-04T10:23:35;97033.13;;;5.61;43.12
72118;BME280;59992;47.490;8.736;2023-04-04T10:26:26;97027.11;;;5.63;43.13
72118;BME280;59992;47.490;8.736;2023-04-04T10:29:16;97030.58;;;5.70;43.04
72118;BME280;59992;47.490;8.736;2023-04-04T10:32:11;97030.10;;;5.72;41.86
72118;BME280;59992;47.490;8.736;2023-04-04T10:35:06;97024.88;;;5.72;41.76
72118;BME280;59992;47.490;8.736;2023-04-04T10:38:00;97026.16;;;5.75;41.82
72118;BME280;59992;47.490;8.736;2023-04-04T10:40:54;97022.55;;;5.71;42.52
72118;BME280;59992;47.490;8.736;2023-04-04T10:43:45;97019.94;;;5.77;42.35
72118;BME280;59992;47.490;8.736;2023-04-04T10:46:39;97021.20;;;5.84;42.72
72118;BME280;59992;47.490;8.736;2023-04-04T10:49:30;97023.78;;;5.84;41.74
72118;BME280;59992;47.490;8.736;2023-04-04T10:52:22;97023.86;;;5.94;42.43
72118;BME280;59992;47.490;8.736;2023-04-04T10:55:13;97017.32;;;5.98;42.07
72118;BME280;59992;47.490;8.736;2023-04-04T10:58:05;97013.20;;;6.00;42.54
72118;BME280;59992;47.490;8.736;2023-04-04T11:00:56;97016.11;;;6.10;42.12
72118;BME280;59992;47.490;8.736;2023-04-04T11:04:17;97009.98;;;6.06;40.53
72118;BME280;59992;47.490;8.736;2023-04-04T11:07:16;97015.14;;;6.12;41.55
72118;BME280;59992;47.490;8.736;2023-04-04T11:10:13;97012.11;;;6.11;40.80
72118;BME280;59992;47.490;8.736;2023-04-04T11:13:14;97012.63;;;6.03;41.26
72118;BME280;59992;47.490;8.736;2023-04-04T11:16:06;97010.14;;;6.05;40.43
72118;BME280;59992;47.490;8.736;2023-04-04T11:19:03;97007.89;;;6.03;40.95
72118;BME280;59992;47.490;8.736;2023-04-04T11:21:54;97015.05;;;6.07;41.16
72118;BME280;59992;47.490;8.736;2023-04-04T11:24:46;97011.06;;;6.09;40.79
72118;BME280;59992;47.490;8.736;2023-04-04T11:27:37;97006.16;;;6.11;40.88
72118;BME280;59992;47.490;8.736;2023-04-04T11:30:29;97007.28;;;6.12;40.29
72118;BME280;59992;47.490;8.736;2023-04-04T11:33:30;97001.38;;;6.14;39.99
72118;BME280;59992;47.490;8.736;2023-04-04T11:36:51;97002.14;;;6.24;40.16
72118;BME280;59992;47.490;8.736;2023-04-04T11:39:47;96993.70;;;6.28;39.40
72118;BME280;59992;47.490;8.736;2023-04-04T11:42:47;97005.27;;;6.42;39.63
72118;BME280;59992;47.490;8.736;2023-04-04T11:45:44;96999.15;;;6.43;39.68
72118;BME280;59992;47.490;8.736;2023-04-04T11:48:34;97000.25;;;6.57;40.34
72118;BME280;59992;47.490;8.736;2023-04-04T11:51:25;97000.46;;;6.70;40.43
72118;BME280;59992;47.490;8.736;2023-04-04T11:54:17;97002.55;;;6.65;38.95
72118;BME280;59992;47.490;8.736;2023-04-04T11:57:09;96997.23;;;6.62;37.91
72118;BME280;59992;47.490;8.736;2023-04-04T12:00:00;96997.35;;;6.65;37.59
72118;BME280;59992;47.490;8.736;2023-04-04T12:02:55;96991.35;;;6.74;38.07
72118;BME280;59992;47.490;8.736;2023-04-04T12:05:46;96982.79;;;6.81;38.22
72118;BME280;59992;47.490;8.736;2023-04-04T12:08:39;96988.17;;;6.91;38.31
72118;BME280;59992;47.490;8.736;2023-04-04T12:11:30;96996.13;;;6.95;37.03
72118;BME280;59992;47.490;8.736;2023-04-04T12:14:23;97000.08;;;6.96;36.69
72118;BME280;59992;47.490;8.736;2023-04-04T12:17:15;96993.33;;;7.01;37.66
72118;BME280;59992;47.490;8.736;2023-04-04T12:20:08;96994.27;;;7.04;37.55
72118;BME280;59992;47.490;8.736;2023-04-04T12:22:59;96991.48;;;7.14;37.18
72118;BME280;59992;47.490;8.736;2023-04-04T12:25:49;96991.04;;;7.16;37.32
72118;BME280;59992;47.490;8.736;2023-04-04T12:28:43;96987.70;;;7.13;36.41
72118;BME280;59992;47.490;8.736;2023-04-04T12:31:35;96987.04;;;7.11;37.46
72118;BME280;59992;47.490;8.736;2023-04-04T12:34:29;96988.64;;;7.07;36.39
72118;BME280;59992;47.490;8.736;2023-04-04T12:37:22;96981.05;;;7.10;35.71
72118;BME280;59992;47.490;8.736;2023-04-04T12:40:13;96983.38;;;7.12;36.43
72118;BME280;59992;47.490;8.736;2023-04-04T12:43:04;96983.71;;;7.08;36.32
72118;BME280;59992;47.490;8.736;2023-04-04T12:45:56;96986.39;;;7.12;37.32
72118;BME280;59992;47.490;8.736;2023-04-04T12:48:49;96991.92;;;7.18;36.90
72118;BME280;59992;47.490;8.736;2023-04-04T12:51:40;96989.41;;;7.17;35.64
72118;BME280;59992;47.490;8.736;2023-04-04T12:54:32;96993.92;;;7.19;36.14
72118;BME280;59992;47.490;8.736;2023-04-04T12:57:24;96979.75;;;7.20;36.36
72118;BME280;59992;47.490;8.736;2023-04-04T13:00:16;96979.19;;;7.24;37.00
72118;BME280;59992;47.490;8.736;2023-04-04T13:03:09;96973.58;;;7.30;36.66
72118;BME280;59992;47.490;8.736;2023-04-04T13:06:00;96976.66;;;7.32;36.56
72118;BME280;59992;47.490;8.736;2023-04-04T13:08:52;96981.79;;;7.30;36.54
72118;BME280;59992;47.490;8.736;2023-04-04T13:11:59;96978.39;;;7.23;36.31
72118;BME280;59992;47.490;8.736;2023-04-04T13:15:00;96969.58;;;7.27;37.02
72118;BME280;59992;47.490;8.736;2023-04-04T13:17:52;96979.52;;;7.30;36.36
72118;BME280;59992;47.490;8.736;2023-04-04T13:20:42;96976.69;;;7.26;36.91
72118;BME280;59992;47.490;8.736;2023-04-04T13:23:33;96969.44;;;7.26;37.22
72118;BME280;59992;47.490;8.736;2023-04-04T13:26:25;96955.31;;;7.32;37.82
72118;BME280;59992;47.490;8.736;2023-04-04T13:29:15;96961.26;;;7.39;36.78
72118;BME280;59992;47.490;8.736;2023-04-04T13:32:05;96958.56;;;7.47;37.07
72118;BME280;59992;47.490;8.736;2023-04-04T13:34:56;96960.57;;;7.51;36.14
72118;BME280;59992;47.490;8.736;2023-04-04T13:37:46;96958.04;;;7.52;36.28
72118;BME280;59992;47.490;8.736;2023-04-04T13:40:36;96970.70;;;7.47;35.45
72118;BME280;59992;47.490;8.736;2023-04-04T13:43:26;96966.96;;;7.43;35.20
72118;BME280;59992;47.490;8.736;2023-04-04T13:46:16;96962.66;;;7.47;36.13
72118;BME280;59992;47.490;8.736;2023-04-04T13:49:06;96955.98;;;7.46;36.44
72118;BME280;59992;47.490;8.736;2023-04-04T13:51:57;96955.89;;;7.45;36.80
72118;BME280;59992;47.490;8.736;2023-04-04T13:54:47;96966.09;;;7.44;36.76
72118;BME280;59992;47.490;8.736;2023-04-04T13:57:37;96966.61;;;7.51;36.76
72118;BME280;59992;47.490;8.736;2023-04-04T14:00:27;96967.80;;;7.53;36.41
72118;BME280;59992;47.490;8.736;2023-04-04T14:03:18;96962.02;;;7.56;36.43
72118;BME280;59992;47.490;8.736;2023-04-04T14:06:08;96971.10;;;7.52;36.20
72118;BME280;59992;47.490;8.736;2023-04-04T14:08:58;96968.09;;;7.50;36.52
72118;BME280;59992;47.490;8.736;2023-04-04T14:11:48;96961.39;;;7.45;37.01
72118;BME280;59992;47.490;8.736;2023-04-04T14:14:39;96963.62;;;7.47;37.40
72118;BME280;59992;47.490;8.736;2023-04-04T14:17:29;96959.25;;;7.47;36.73
72118;BME280;59992;47.490;8.736;2023-04-04T14:20:20;96959.08;;;7.46;36.93
72118;BME280;59992;47.490;8.736;2023-04-04T14:23:11;96963.83;;;7.46;37.34
72118;BME280;59992;47.490;8.736;2023-04-04T14:26:01;96959.00;;;7.51;37.22
72118;BME280;59992;47.490;8.736;2023-04-04T14:28:52;96961.25;;;7.53;37.14
72118;BME280;59992;47.490;8.736;2023-04-04T14:31:42;96957.22;;;7.54;36.88
72118;BME280;59992;47.490;8.736;2023-04-04T14:34:32;96951.47;;;7.58;37.07
72118;BME280;59992;47.490;8.736;2023-04-04T14:37:23;96952.11;;;7.63;37.00
72118;BME280;59992;47.490;8.736;2023-04-04T14:40:14;96948.36;;;7.68;36.81
72118;BME280;59992;47.490;8.736;2023-04-04T14:43:04;96960.86;;;7.60;36.28
72118;BME280;59992;47.490;8.736;2023-04-04T14:45:55;96948.77;;;7.59;36.45
72118;BME280;59992;47.490;8.736;2023-04-04T14:48:48;96948.30;;;7.54;36.67
72118;BME280;59992;47.490;8.736;2023-04-04T14:51:39;96951.01;;;7.51;36.75
72118;BME280;59992;47.490;8.736;2023-04-04T14:54:29;96957.36;;;7.54;36.68
72118;BME280;59992;47.490;8.736;2023-04-04T14:57:20;96952.72;;;7.55;36.35
72118;BME280;59992;47.490;8.736;2023-04-04T15:00:12;96956.63;;;7.60;36.17
72118;BME280;59992;47.490;8.736;2023-04-04T15:03:04;96955.52;;;7.57;36.35
72118;BME280;59992;47.490;8.736;2023-04-04T15:05:56;96952.50;;;7.58;36.61
72118;BME280;59992;47.490;8.736;2023-04-04T15:08:47;96950.38;;;7.57;36.77
72118;BME280;59992;47.490;8.736;2023-04-04T15:11:37;96956.08;;;7.59;36.63
72118;BME280;59992;47.490;8.736;2023-04-04T15:14:28;96950.70;;;7.58;36.22
72118;BME280;59992;47.490;8.736;2023-04-04T15:17:19;96947.43;;;7.57;35.89